createdAt,value
2022-11-21T00:05:58.816Z,11
2022-11-21T00:21:08.249Z,11.1
2022-11-21T00:36:17.710Z,14.1
2022-11-21T00:51:26.495Z,14.2
2022-11-21T01:06:34.857Z,13.5
2022-11-21T01:21:44.458Z,14.5
2022-11-21T01:36:54.185Z,15.1
2022-11-21T01:52:03.757Z,16
2022-11-21T02:07:13.540Z,14.2
2022-11-21T02:22:23.211Z,15.2
2022-11-21T02:37:32.944Z,14.9
2022-11-21T02:53:09.629Z,16.8
2022-11-21T03:08:19.395Z,14.7
2022-11-21T03:23:29.157Z,15.3
2022-11-21T03:38:38.375Z,15.1
2022-11-21T03:53:47.894Z,16.2
2022-11-21T04:08:56.739Z,14.1
2022-11-21T04:24:05.796Z,14.7
2022-11-21T04:39:15.443Z,16.8
2022-11-21T04:54:24.576Z,15.6
2022-11-21T05:09:34.579Z,15.7
2022-11-21T05:24:43.206Z,15.9
2022-11-21T05:39:52.269Z,13.1
2022-11-21T05:55:03.231Z,16.3
2022-11-21T06:10:12.790Z,15.1
2022-11-21T06:25:21.798Z,15.9
2022-11-21T06:40:31.289Z,14.7
2022-11-21T06:55:46.932Z,17
2022-11-21T07:11:25.175Z,14
2022-11-21T07:26:41.792Z,14.9
2022-11-21T07:41:50.955Z,16.4
2022-11-21T07:56:59.750Z,16.8
2022-11-21T08:12:09.236Z,17.6
2022-11-21T08:27:18.705Z,16.8
2022-11-21T08:42:28.168Z,18.9
2022-11-21T08:57:43.430Z,19.2
2022-11-21T09:12:53.171Z,16.8
2022-11-21T09:28:04.156Z,18.3
2022-11-21T09:43:13.754Z,19.7
2022-11-21T09:58:23.257Z,20.6
2022-11-21T10:13:32.909Z,20.8
2022-11-21T10:30:27.520Z,22.1
2022-11-21T10:45:38.452Z,12.9
2022-11-21T11:00:48.300Z,9.5
2022-11-21T11:16:01.626Z,10.9
2022-11-21T11:31:10.617Z,12.2
2022-11-21T11:46:20.994Z,10.1
2022-11-21T12:01:34.355Z,11.7
2022-11-21T12:16:44.089Z,11.9
2022-11-21T12:31:54.005Z,12.3
2022-11-21T12:47:09.258Z,10.6
2022-11-21T13:02:18.969Z,9.3
2022-11-21T13:17:27.913Z,8.6
2022-11-21T13:32:37.215Z,8.6
2022-11-21T13:47:56.764Z,7.7
2022-11-21T14:03:07.121Z,9.5
2022-11-21T14:18:16.647Z,10.8
2022-11-21T14:33:26.143Z,7.8
2022-11-21T14:48:35.795Z,8.3
2022-11-21T15:03:45.417Z,10.4
2022-11-21T15:18:59.172Z,9.6
2022-11-21T15:34:38.469Z,11
2022-11-21T15:49:48.623Z,8.9
2022-11-21T16:04:57.847Z,9.5
2022-11-21T16:20:07.784Z,11.6
2022-11-21T16:35:16.996Z,9.8
2022-11-21T16:50:26.589Z,9
2022-11-21T17:05:35.870Z,10.3
2022-11-21T17:20:44.853Z,9.7
2022-11-21T17:35:54.646Z,11.5
2022-11-21T17:51:04.626Z,11.4
2022-11-21T18:06:13.967Z,10.7
2022-11-21T18:21:23.500Z,10.5
2022-11-21T18:36:32.687Z,10.6
2022-11-21T18:51:41.861Z,12.7
2022-11-21T19:06:51.805Z,13.6
2022-11-21T19:22:01.414Z,13.9
2022-11-21T19:37:11.311Z,15.8
2022-11-21T19:52:28.181Z,15.6
2022-11-21T20:07:38.339Z,13.3
2022-11-21T20:22:48.384Z,15.6
2022-11-21T20:37:58.065Z,14.1
2022-11-21T20:53:51.252Z,11.8
2022-11-21T21:09:12.994Z,11.2
2022-11-21T21:24:22.714Z,11.1
2022-11-21T21:39:32.064Z,12
2022-11-21T21:54:41.168Z,10.9
2022-11-21T22:09:50.454Z,11.4
2022-11-21T22:24:59.669Z,13.1
2022-11-21T22:40:08.730Z,13.7
2022-11-21T22:55:18.344Z,13.2
2022-11-21T23:10:27.884Z,13.2
2022-11-21T23:25:37.551Z,13.7
2022-11-21T23:40:47.014Z,13.5
2022-11-21T23:55:56.538Z,17.8
